createdAt,value
2023-04-27T04:06:25.024Z,100.00
2023-04-27T04:16:04.202Z,100.00
2023-04-27T04:19:07.012Z,100.00
2023-04-27T04:22:09.666Z,100.00
2023-04-27T04:25:12.967Z,100.00
2023-04-27T04:28:15.518Z,100.00
2023-04-27T04:31:19.440Z,100.00
2023-04-27T04:34:22.845Z,100.00
2023-04-27T04:37:25.579Z,100.00
2023-04-27T04:40:28.694Z,100.00
2023-04-27T04:43:31.218Z,100.00
2023-04-27T04:46:35.161Z,100.00
2023-04-27T04:49:37.934Z,100.00
2023-04-27T04:52:40.432Z,96.85
2023-04-27T04:55:42.911Z,94.67
2023-04-27T04:58:45.448Z,91.63
2023-04-27T05:01:49.278Z,88.72
2023-04-27T05:04:52.531Z,87.94
2023-04-27T05:07:55.213Z,87.43
2023-04-27T05:10:57.702Z,86.54
2023-04-27T05:14:00.149Z,85.70
2023-04-27T05:17:03.973Z,84.55
2023-04-27T05:20:08.856Z,84.14
2023-04-27T05:23:11.418Z,85.12
2023-04-27T05:26:14.488Z,84.50
2023-04-27T05:29:17.346Z,85.13
2023-04-27T05:32:21.301Z,83.07
2023-04-27T05:35:23.783Z,84.55
2023-04-27T05:38:26.306Z,88.42
2023-04-27T05:41:28.911Z,89.80
2023-04-27T05:44:31.470Z,89.79
2023-04-27T05:47:35.646Z,95.24
2023-04-27T05:50:38.320Z,100.00
2023-04-27T05:53:41.100Z,100.00
2023-04-27T05:56:43.587Z,100.00
2023-04-27T05:59:46.118Z,100.00
2023-04-27T06:02:50.134Z,100.00
2023-04-27T06:05:58.648Z,100.00
2023-04-27T06:09:01.410Z,100.00
2023-04-27T06:12:04.401Z,100.00
2023-04-27T06:15:09.484Z,100.00
2023-04-27T06:18:13.521Z,100.00
2023-04-27T06:21:16.413Z,100.00
2023-04-27T06:24:18.891Z,100.00
2023-04-27T06:27:21.351Z,100.00
2023-04-27T06:30:24.207Z,100.00
2023-04-27T06:33:28.112Z,100.00
2023-04-27T06:36:31.365Z,100.00
2023-04-27T06:39:33.963Z,100.00
2023-04-27T06:42:36.488Z,100.00
2023-04-27T06:45:38.987Z,100.00
2023-04-27T06:48:43.068Z,100.00
2023-04-27T06:51:46.675Z,100.00
2023-04-27T06:54:49.243Z,99.42
2023-04-27T06:57:51.720Z,94.09
2023-04-27T07:00:54.632Z,93.01
2023-04-27T07:03:58.540Z,95.98
2023-04-27T07:07:01.249Z,89.08
2023-04-27T07:10:04.117Z,87.73
2023-04-27T07:13:09.081Z,84.92
2023-04-27T07:16:12.079Z,82.66
2023-04-27T07:19:16.276Z,79.24
2023-04-27T07:22:20.028Z,75.47
2023-04-27T07:25:22.672Z,76.85
2023-04-27T07:28:25.268Z,78.77
2023-04-27T07:31:28.055Z,80.32
2023-04-27T07:34:41.281Z,84.54
2023-04-27T07:37:52.429Z,73.65
2023-04-27T07:40:54.962Z,66.52
2023-04-27T07:43:57.965Z,71.38
2023-04-27T07:47:00.452Z,69.29
2023-04-27T07:50:06.269Z,73.15
2023-04-27T07:53:08.921Z,68.24
2023-04-27T07:56:11.525Z,70.50
2023-04-27T07:59:15.023Z,72.00
2023-04-27T08:02:20.114Z,76.95
2023-04-27T08:05:24.706Z,77.26
2023-04-27T08:08:27.456Z,78.01
2023-04-27T08:11:30.396Z,76.83
2023-04-27T08:14:35.240Z,70.38
2023-04-27T08:17:40.690Z,73.25
2023-04-27T08:20:44.747Z,74.99
2023-04-27T08:23:47.308Z,77.02
2023-04-27T08:26:49.804Z,74.55
2023-04-27T08:29:52.590Z,76.54
2023-04-27T08:32:55.502Z,71.14
2023-04-27T08:35:59.364Z,70.55
2023-04-27T08:39:01.830Z,70.04
2023-04-27T08:42:11.637Z,65.97
2023-04-27T08:45:14.127Z,69.88
2023-04-27T08:48:16.720Z,62.07
2023-04-27T08:51:21.359Z,60.00
2023-04-27T08:54:23.851Z,59.52
2023-04-27T08:57:26.331Z,61.84
2023-04-27T09:00:40.511Z,64.65
2023-04-27T09:03:43.434Z,62.65
2023-04-27T09:06:49.016Z,65.11
2023-04-27T09:09:51.764Z,58.91
2023-04-27T09:12:58.956Z,59.12
2023-04-27T09:16:01.483Z,54.39
2023-04-27T09:19:04.045Z,56.22
2023-04-27T09:22:10.824Z,52.04
2023-04-27T09:25:23.709Z,46.65
2023-04-27T09:28:27.625Z,44.72
2023-04-27T09:31:34.022Z,49.74
2023-04-27T09:34:40.933Z,50.76
2023-04-27T09:37:45.460Z,57.62
2023-04-27T09:40:48.597Z,50.74
2023-04-27T09:43:52.695Z,46.97
2023-04-27T09:46:57.176Z,45.13
2023-04-27T09:50:00.519Z,48.14
2023-04-27T09:53:07.903Z,49.59
2023-04-27T09:56:28.807Z,49.12
2023-04-27T09:59:41.512Z,50.65
2023-04-27T10:02:54.597Z,54.50
2023-04-27T10:06:37.454Z,52.66
2023-04-27T10:09:44.164Z,52.16
2023-04-27T10:12:58.049Z,52.56
2023-04-27T10:16:16.550Z,56.06
2023-04-27T10:19:20.529Z,56.37
2023-04-27T10:25:28.579Z,56.51
2023-04-27T10:28:40.139Z,60.47
2023-04-27T10:31:44.984Z,57.89
2023-04-27T10:34:49.053Z,56.25
2023-04-27T10:37:53.053Z,54.93
2023-04-27T10:40:58.208Z,53.04
2023-04-27T10:44:14.885Z,49.50
2023-04-27T10:47:19.869Z,45.08
2023-04-27T10:50:23.497Z,44.35
2023-04-27T10:53:27.147Z,43.10
2023-04-27T10:56:30.992Z,47.97
2023-04-27T10:59:33.871Z,49.36
2023-04-27T11:02:36.556Z,51.19
2023-04-27T11:05:39.151Z,55.88
2023-04-27T11:08:45.998Z,53.28
2023-04-27T11:11:49.926Z,51.70
2023-04-27T11:14:58.459Z,51.15
2023-04-27T11:18:05.958Z,46.25
2023-04-27T11:21:10.514Z,48.41
2023-04-27T11:24:15.303Z,47.22
2023-04-27T11:27:22.272Z,46.53
2023-04-27T11:30:26.016Z,50.00
2023-04-27T11:33:29.269Z,52.40
2023-04-27T11:36:31.757Z,51.16
2023-04-27T11:39:36.079Z,51.18
2023-04-27T11:42:43.618Z,54.46
2023-04-27T11:45:46.302Z,54.88
2023-04-27T11:48:48.874Z,48.10
2023-04-27T11:51:51.544Z,44.03
2023-04-27T11:54:56.510Z,48.36
2023-04-27T11:58:00.512Z,51.63
2023-04-27T12:01:03.146Z,54.35
2023-04-27T12:04:06.240Z,54.46
2023-04-27T12:07:08.887Z,55.64
2023-04-27T12:10:11.958Z,50.61
2023-04-27T12:13:16.212Z,45.82
2023-04-27T12:16:18.756Z,45.24
2023-04-27T12:19:24.249Z,45.00
2023-04-27T12:22:26.943Z,46.39
2023-04-27T12:25:30.342Z,48.21
2023-04-27T12:28:34.297Z,50.64
2023-04-27T12:31:36.945Z,49.39
2023-04-27T12:34:40.218Z,52.91
2023-04-27T12:37:42.916Z,54.56
2023-04-27T12:40:45.642Z,54.67
2023-04-27T12:43:49.468Z,54.38
2023-04-27T12:46:52.199Z,53.33
2023-04-27T12:49:54.864Z,53.05
2023-04-27T12:52:57.353Z,50.20
2023-04-27T12:56:01.930Z,46.80
2023-04-27T12:59:05.957Z,47.88
2023-04-27T13:02:08.800Z,47.84
2023-04-27T13:05:11.895Z,48.59
2023-04-27T13:08:14.406Z,45.04
2023-04-27T13:11:17.967Z,44.29
2023-04-27T13:14:22.060Z,43.23
2023-04-27T13:17:24.661Z,44.05
2023-04-27T13:20:27.233Z,46.13
2023-04-27T13:23:30.008Z,50.46
2023-04-27T13:26:32.532Z,52.83
2023-04-27T13:29:36.337Z,50.07
2023-04-27T13:32:38.929Z,49.01
2023-04-27T13:35:41.548Z,54.44
2023-04-27T13:38:44.030Z,55.05
2023-04-27T13:41:46.715Z,54.35
2023-04-27T13:44:50.522Z,55.37
2023-04-27T13:47:53.018Z,57.38
2023-04-27T13:50:55.922Z,54.76
2023-04-27T13:53:58.422Z,57.09
2023-04-27T13:57:00.892Z,52.48
2023-04-27T14:00:08.088Z,53.28
2023-04-27T14:03:10.789Z,55.02
2023-04-27T14:06:13.405Z,58.51
2023-04-27T14:09:16.633Z,54.60
2023-04-27T14:12:20.405Z,58.03
2023-04-27T14:15:24.242Z,55.70
2023-04-27T14:18:32.250Z,56.59
2023-04-27T14:21:35.356Z,56.79
2023-04-27T14:24:37.953Z,61.96
2023-04-27T14:27:40.977Z,62.60
2023-04-27T14:30:44.800Z,58.32
2023-04-27T14:33:47.993Z,60.75
2023-04-27T14:36:50.489Z,57.41
2023-04-27T14:39:52.992Z,59.25
2023-04-27T14:42:55.501Z,62.34
2023-04-27T14:46:08.025Z,59.51
2023-04-27T14:49:21.976Z,57.58
2023-04-27T14:52:24.456Z,59.71
2023-04-27T14:55:27.202Z,60.48
2023-04-27T14:58:32.079Z,58.33
2023-04-27T15:01:36.934Z,61.68
2023-04-27T15:04:40.071Z,59.35
2023-04-27T15:07:42.643Z,58.09
2023-04-27T15:10:45.140Z,57.03
2023-04-27T15:13:47.919Z,57.49
2023-04-27T15:16:52.071Z,52.20
2023-04-27T15:19:55.868Z,55.12
2023-04-27T15:22:58.357Z,51.10
2023-04-27T15:26:00.920Z,48.95
2023-04-27T15:29:03.639Z,53.83
2023-04-27T15:32:07.433Z,46.49
2023-04-27T15:35:12.272Z,46.15
2023-04-27T15:38:17.840Z,47.85
2023-04-27T15:41:20.409Z,46.49
2023-04-27T15:44:22.885Z,48.23
2023-04-27T15:47:26.942Z,52.80
2023-04-27T15:50:29.652Z,55.99
2023-04-27T15:53:32.463Z,56.13
2023-04-27T15:56:34.944Z,59.57
2023-04-27T15:59:37.495Z,60.44
2023-04-27T16:02:41.778Z,55.83
2023-04-27T16:05:44.480Z,58.78
2023-04-27T16:08:47.049Z,54.69
2023-04-27T16:11:49.524Z,56.66
2023-04-27T16:14:57.001Z,53.58
2023-04-27T16:18:01.200Z,54.31
2023-04-27T16:21:04.123Z,52.47
2023-04-27T16:24:06.791Z,53.42
2023-04-27T16:27:09.348Z,56.07
2023-04-27T16:30:12.447Z,55.12
2023-04-27T16:33:16.457Z,53.99
2023-04-27T16:36:19.000Z,54.89
2023-04-27T16:39:21.694Z,53.12
2023-04-27T16:42:24.209Z,55.88
2023-04-27T16:45:26.703Z,53.86
2023-04-27T16:48:30.661Z,52.28
2023-04-27T16:51:33.296Z,51.72
2023-04-27T16:54:36.418Z,53.27
2023-04-27T16:57:38.943Z,55.62
2023-04-27T17:00:41.692Z,53.05
2023-04-27T17:03:45.739Z,51.91
2023-04-27T17:06:48.642Z,50.60
2023-04-27T17:09:51.108Z,52.04
2023-04-27T17:12:53.684Z,53.03
2023-04-27T17:15:56.203Z,52.89
2023-04-27T17:19:00.110Z,54.96
2023-04-27T17:22:02.621Z,54.86
2023-04-27T17:25:05.734Z,52.61
2023-04-27T17:28:09.044Z,49.99
2023-04-27T17:31:11.699Z,51.00
2023-04-27T17:34:15.596Z,51.71
2023-04-27T17:37:18.122Z,55.08
2023-04-27T17:40:21.142Z,55.72
2023-04-27T17:43:23.739Z,55.30
2023-04-27T17:46:26.410Z,58.37
2023-04-27T17:49:30.250Z,60.02
2023-04-27T17:52:32.738Z,60.88
2023-04-27T17:55:35.284Z,62.96
2023-04-27T17:58:37.816Z,64.21
2023-04-27T18:01:40.392Z,65.58
2023-04-27T18:04:44.285Z,67.27
2023-04-27T18:07:47.206Z,69.54
2023-04-27T18:10:49.704Z,71.96
2023-04-27T18:13:52.572Z,74.36
2023-04-27T18:16:55.218Z,75.82
2023-04-27T18:20:08.201Z,76.44
2023-04-27T18:23:12.240Z,78.63
2023-04-27T18:26:14.737Z,79.85
2023-04-27T18:29:17.322Z,81.80
2023-04-27T18:32:19.804Z,84.32
2023-04-27T18:35:23.632Z,87.60
2023-04-27T18:38:26.126Z,89.27
2023-04-27T18:41:28.729Z,92.45
2023-04-27T18:44:31.369Z,94.12
2023-04-27T18:47:33.907Z,96.01
2023-04-27T18:50:37.793Z,99.45
2023-04-27T18:53:40.267Z,100.00
2023-04-27T18:56:42.766Z,100.00
2023-04-27T18:59:45.251Z,100.00
2023-04-27T19:02:48.341Z,100.00
2023-04-27T19:05:52.812Z,100.00
2023-04-27T19:08:55.734Z,100.00
2023-04-27T19:12:02.991Z,100.00
2023-04-27T19:15:06.676Z,100.00
2023-04-27T19:18:11.070Z,100.00
2023-04-27T19:21:15.507Z,100.00
2023-04-27T19:24:18.176Z,100.00
2023-04-27T19:27:20.674Z,100.00
2023-04-27T19:30:23.201Z,100.00
2023-04-27T19:33:25.872Z,100.00
2023-04-27T19:36:29.670Z,100.00
2023-04-27T19:39:34.298Z,100.00
2023-04-27T19:42:37.063Z,100.00
2023-04-27T19:45:41.799Z,100.00
2023-04-27T19:48:44.274Z,100.00
